createdAt,value
2023-05-12T00:01:47.248Z,20.80
2023-05-12T00:04:15.302Z,20.13
2023-05-12T00:06:43.347Z,22.00
2023-05-12T00:09:11.264Z,20.30
2023-05-12T00:11:39.290Z,20.93
2023-05-12T00:14:07.710Z,21.60
2023-05-12T00:16:37.072Z,21.40
2023-05-12T00:19:05.208Z,21.60
2023-05-12T00:21:33.459Z,20.97
2023-05-12T00:24:02.865Z,21.13
2023-05-12T00:26:30.899Z,21.00
2023-05-12T00:28:58.829Z,23.33
2023-05-12T00:31:26.797Z,20.70
2023-05-12T00:33:56.932Z,20.10
2023-05-12T00:36:25.157Z,20.77
2023-05-12T00:38:54.097Z,22.77
2023-05-12T00:41:22.132Z,21.60
2023-05-12T00:43:50.065Z,24.23
2023-05-12T00:46:18.943Z,22.60
2023-05-12T00:48:47.284Z,21.40
2023-05-12T00:51:17.586Z,21.37
2023-05-12T00:53:50.355Z,21.67
2023-05-12T00:56:19.915Z,22.90
2023-05-12T00:58:48.370Z,21.53
2023-05-12T01:01:17.899Z,21.27
2023-05-12T01:03:48.793Z,21.47
2023-05-12T01:06:24.109Z,21.53
2023-05-12T01:08:53.210Z,20.87
2023-05-12T01:11:21.736Z,22.03
2023-05-12T01:13:49.795Z,22.50
2023-05-12T01:16:23.900Z,23.93
2023-05-12T01:18:55.553Z,22.67
2023-05-12T01:21:25.824Z,21.83
2023-05-12T01:23:59.911Z,21.13
2023-05-12T01:26:32.413Z,21.47
2023-05-12T01:29:03.593Z,21.33
2023-05-12T01:31:33.288Z,22.47
2023-05-12T01:34:01.576Z,22.40
2023-05-12T01:36:32.981Z,21.63
2023-05-12T01:39:01.004Z,23.10
2023-05-12T01:41:29.183Z,23.10
2023-05-12T01:43:58.644Z,22.30
2023-05-12T01:46:27.472Z,22.93
2023-05-12T01:48:58.451Z,22.07
2023-05-12T01:51:27.274Z,23.57
2023-05-12T01:53:57.044Z,22.53
2023-05-12T01:56:26.484Z,22.57
2023-05-12T01:58:55.511Z,22.40
2023-05-12T02:01:28.545Z,23.73
2023-05-12T02:03:58.506Z,21.93
2023-05-12T02:06:28.462Z,23.17
2023-05-12T02:08:57.573Z,22.03
2023-05-12T02:11:25.870Z,22.10
2023-05-12T02:13:56.502Z,22.07
2023-05-12T02:16:27.258Z,22.03
2023-05-12T02:18:55.404Z,20.57
2023-05-12T02:21:23.352Z,24.03
2023-05-12T02:23:52.856Z,24.00
2023-05-12T02:26:21.223Z,22.00
2023-05-12T02:28:49.446Z,20.90
2023-05-12T02:31:17.816Z,22.57
2023-05-12T02:33:47.143Z,22.37
2023-05-12T02:36:15.989Z,23.07
2023-05-12T02:38:43.932Z,23.20
2023-05-12T02:41:12.112Z,24.30
2023-05-12T02:43:40.036Z,22.33
2023-05-12T02:46:07.988Z,24.27
2023-05-12T02:48:36.028Z,23.13
2023-05-12T02:51:05.952Z,21.57
2023-05-12T02:53:33.977Z,21.43
2023-05-12T02:56:02.347Z,23.10
2023-05-12T02:58:30.391Z,22.33
2023-05-12T03:01:09.317Z,22.33
2023-05-12T03:03:39.118Z,22.70
2023-05-12T03:06:09.416Z,22.97
2023-05-12T03:08:37.672Z,21.93
2023-05-12T03:11:05.753Z,24.17
2023-05-12T03:13:33.771Z,24.80
2023-05-12T03:16:02.077Z,22.27
2023-05-12T03:18:31.577Z,23.43
2023-05-12T03:20:59.637Z,21.93
2023-05-12T03:23:29.053Z,22.37
2023-05-12T03:25:57.065Z,21.93
2023-05-12T03:28:26.296Z,23.47
2023-05-12T03:30:55.152Z,21.43
2023-05-12T03:33:24.571Z,23.00
2023-05-12T03:35:54.538Z,21.60
2023-05-12T03:38:22.610Z,22.57
2023-05-12T03:40:53.412Z,21.33
2023-05-12T03:43:22.009Z,23.30
2023-05-12T03:45:50.339Z,23.57
2023-05-12T03:48:18.426Z,22.20
2023-05-12T03:50:46.325Z,22.20
2023-05-12T03:53:14.337Z,22.00
2023-05-12T03:55:42.574Z,21.90
2023-05-12T03:58:12.723Z,22.80
2023-05-12T04:00:40.768Z,23.43
2023-05-12T04:03:09.054Z,22.37
2023-05-12T04:05:39.390Z,23.03
2023-05-12T04:08:07.452Z,23.33
2023-05-12T04:10:39.994Z,21.87
2023-05-12T04:13:08.320Z,23.47
2023-05-12T04:15:37.645Z,23.60
2023-05-12T04:18:05.715Z,22.40
2023-05-12T04:20:33.708Z,24.00
2023-05-12T04:23:01.628Z,23.43
2023-05-12T04:25:29.559Z,24.47
2023-05-12T04:27:57.549Z,23.93
2023-05-12T04:30:25.946Z,23.13
2023-05-12T04:32:56.050Z,23.23
2023-05-12T04:35:24.024Z,23.80
2023-05-12T04:37:52.028Z,23.37
2023-05-12T04:40:20.546Z,24.83
2023-05-12T04:42:48.694Z,23.60
2023-05-12T04:45:17.408Z,24.13
2023-05-12T04:47:45.563Z,24.00
2023-05-12T04:50:15.627Z,22.83
2023-05-12T04:52:43.960Z,25.30
2023-05-12T04:55:11.978Z,22.90
2023-05-12T04:57:41.304Z,22.77
2023-05-12T05:00:12.328Z,24.63
2023-05-12T05:02:41.376Z,25.20
2023-05-12T05:05:10.768Z,24.77
2023-05-12T05:07:40.196Z,24.03
2023-05-12T05:10:09.260Z,23.37
2023-05-12T05:12:38.026Z,23.97
2023-05-12T05:15:07.455Z,24.27
2023-05-12T05:17:35.566Z,24.27
2023-05-12T05:20:09.768Z,24.07
2023-05-12T05:22:41.250Z,23.97
2023-05-12T05:25:11.202Z,23.87
2023-05-12T05:27:39.703Z,24.30
2023-05-12T05:30:09.307Z,24.60
2023-05-12T05:32:40.144Z,23.70
2023-05-12T05:35:09.092Z,24.60
2023-05-12T05:37:42.232Z,24.67
2023-05-12T05:40:11.090Z,23.77
2023-05-12T05:42:39.108Z,23.37
2023-05-12T05:45:08.292Z,24.23
2023-05-12T05:47:38.150Z,25.53
2023-05-12T05:50:08.713Z,24.43
2023-05-12T05:52:42.036Z,24.17
2023-05-12T05:55:10.384Z,24.00
2023-05-12T05:57:38.342Z,23.50
2023-05-12T06:00:07.950Z,22.80
2023-05-12T06:02:41.633Z,25.53
2023-05-12T06:05:14.175Z,23.13
2023-05-12T06:07:44.084Z,23.70
2023-05-12T06:10:13.640Z,24.40
2023-05-12T06:12:42.857Z,24.03
2023-05-12T06:15:11.950Z,23.57
2023-05-12T06:17:40.162Z,24.00
2023-05-12T06:20:09.413Z,24.67
2023-05-12T06:22:37.454Z,24.00
2023-05-12T06:25:07.941Z,24.13
2023-05-12T06:27:36.010Z,23.53
2023-05-12T06:30:04.289Z,24.17
2023-05-12T06:32:32.762Z,23.27
2023-05-12T06:35:00.733Z,22.23
2023-05-12T06:37:28.753Z,23.40
2023-05-12T06:39:56.663Z,22.87
2023-05-12T06:42:27.782Z,22.77
2023-05-12T06:44:57.616Z,22.00
2023-05-12T06:47:25.561Z,23.20
2023-05-12T06:49:53.426Z,21.47
2023-05-12T06:52:23.822Z,23.23
2023-05-12T06:54:51.796Z,24.63
2023-05-12T06:57:20.230Z,26.63
2023-05-12T06:59:49.599Z,27.53
2023-05-12T07:02:18.055Z,27.77
2023-05-12T07:04:45.971Z,26.40
2023-05-12T07:07:13.899Z,26.20
2023-05-12T07:09:43.042Z,25.53
2023-05-12T07:12:11.085Z,26.00
2023-05-12T07:14:39.131Z,25.90
2023-05-12T07:17:08.367Z,23.93
2023-05-12T07:19:36.556Z,23.13
2023-05-12T07:22:04.748Z,25.13
2023-05-12T07:24:32.754Z,25.53
2023-05-12T07:27:00.724Z,23.93
2023-05-12T07:29:28.818Z,21.97
2023-05-12T07:31:57.177Z,22.57
2023-05-12T07:34:27.612Z,24.13
2023-05-12T07:36:55.523Z,24.07
2023-05-12T07:39:24.964Z,23.07
2023-05-12T07:41:53.475Z,23.03
2023-05-12T07:44:21.483Z,23.57
2023-05-12T07:46:49.357Z,22.43
2023-05-12T07:49:17.390Z,22.57
2023-05-12T07:51:46.643Z,23.17
2023-05-12T07:54:14.561Z,24.67
2023-05-12T07:56:42.568Z,25.77
2023-05-12T07:59:11.736Z,25.63
2023-05-12T08:01:39.723Z,25.23
2023-05-12T08:04:08.044Z,23.83
2023-05-12T08:06:36.094Z,25.17
2023-05-12T08:09:05.548Z,27.17
2023-05-12T08:11:33.596Z,25.93
2023-05-12T08:14:01.675Z,26.03
2023-05-12T08:16:29.621Z,25.23
2023-05-12T08:18:58.651Z,28.57
2023-05-12T08:21:28.599Z,25.40
2023-05-12T08:23:56.626Z,25.50
2023-05-12T08:26:25.862Z,26.87
2023-05-12T08:28:53.790Z,25.00
2023-05-12T08:31:22.269Z,25.97
2023-05-12T08:33:59.441Z,27.93
2023-05-12T08:36:36.811Z,28.47
2023-05-12T08:39:05.021Z,29.33
2023-05-12T08:41:42.856Z,30.70
2023-05-12T08:44:11.821Z,29.33
2023-05-12T08:46:40.127Z,28.63
2023-05-12T08:49:15.718Z,27.10
2023-05-12T08:51:49.899Z,27.10
2023-05-12T08:54:28.758Z,28.23
2023-05-12T08:59:29.083Z,26.97
2023-05-12T09:01:59.895Z,25.50
2023-05-12T09:04:28.379Z,27.30
2023-05-12T09:06:58.148Z,27.47
2023-05-12T09:09:29.409Z,28.73
2023-05-12T09:12:02.786Z,31.10
2023-05-12T09:14:35.545Z,30.40
2023-05-12T09:17:05.523Z,30.57
2023-05-12T09:19:34.366Z,29.27
2023-05-12T09:22:02.695Z,28.03
2023-05-12T09:24:37.871Z,28.00
2023-05-12T09:27:08.067Z,29.40
2023-05-12T09:29:45.027Z,30.17
2023-05-12T09:32:30.395Z,27.73
2023-05-12T09:34:58.351Z,30.57
2023-05-12T09:37:32.392Z,31.73
2023-05-12T09:40:01.437Z,28.97
2023-05-12T09:42:32.297Z,28.47
2023-05-12T09:45:01.227Z,29.07
2023-05-12T09:47:35.532Z,28.13
2023-05-12T09:50:04.027Z,28.67
2023-05-12T09:52:32.992Z,28.37
2023-05-12T09:55:09.739Z,29.65
2023-05-12T09:57:42.283Z,27.47
2023-05-12T10:00:31.349Z,29.00
2023-05-12T10:03:02.405Z,27.43
2023-05-12T10:05:32.738Z,30.80
2023-05-12T10:08:03.214Z,26.73
2023-05-12T10:10:31.193Z,28.20
2023-05-12T10:13:00.821Z,28.53
2023-05-12T10:15:29.033Z,31.87
2023-05-12T10:17:57.574Z,28.63
2023-05-12T10:20:26.173Z,29.20
2023-05-12T10:22:57.015Z,29.40
2023-05-12T10:25:25.998Z,29.57
2023-05-12T10:27:56.086Z,29.57
2023-05-12T10:30:26.468Z,28.30
2023-05-12T10:32:56.531Z,30.37
2023-05-12T10:35:33.801Z,29.90
2023-05-12T10:38:08.567Z,29.30
2023-05-12T10:40:36.921Z,28.17
2023-05-12T10:43:04.968Z,30.53
2023-05-12T10:45:38.287Z,28.53
2023-05-12T10:48:08.279Z,28.50
2023-05-12T10:50:36.429Z,27.97
2023-05-12T10:53:04.452Z,27.10
2023-05-12T10:55:34.468Z,27.87
2023-05-12T10:58:10.347Z,27.63
2023-05-12T11:00:47.905Z,26.83
2023-05-12T11:03:18.883Z,25.33
2023-05-12T11:05:59.183Z,26.40
2023-05-12T11:08:28.410Z,26.23
2023-05-12T11:10:56.663Z,26.90
2023-05-12T11:13:25.624Z,26.77
2023-05-12T11:15:57.323Z,26.90
2023-05-12T11:18:25.409Z,26.03
2023-05-12T11:20:53.477Z,26.80
2023-05-12T11:23:29.093Z,41.23
2023-05-12T11:25:57.373Z,27.27
2023-05-12T11:28:25.425Z,25.97
2023-05-12T11:30:55.701Z,28.40
2023-05-12T11:33:24.385Z,27.80
2023-05-12T11:35:52.357Z,29.10
2023-05-12T11:38:24.334Z,29.83
2023-05-12T11:40:52.466Z,26.57
2023-05-12T11:43:22.259Z,27.73
2023-05-12T11:45:50.569Z,26.77
2023-05-12T11:48:21.478Z,26.50
2023-05-12T11:50:51.320Z,26.90
2023-05-12T11:53:20.287Z,25.77
2023-05-12T11:55:50.921Z,26.50
2023-05-12T11:58:21.769Z,27.50
2023-05-12T12:00:49.957Z,27.33
2023-05-12T12:03:19.579Z,28.83
2023-05-12T12:06:01.532Z,28.73
2023-05-12T12:08:29.624Z,27.40
2023-05-12T12:10:57.497Z,34.40
2023-05-12T12:13:27.559Z,27.87
2023-05-12T12:15:56.305Z,25.40
2023-05-12T12:18:25.780Z,28.33
2023-05-12T12:20:53.760Z,26.10
2023-05-12T12:23:21.661Z,27.30
2023-05-12T12:25:49.712Z,29.67
2023-05-12T12:28:17.864Z,27.67
2023-05-12T12:30:45.853Z,27.23
2023-05-12T12:33:13.976Z,28.23
2023-05-12T12:35:43.349Z,26.07
2023-05-12T12:38:11.239Z,26.27
2023-05-12T12:40:39.181Z,28.90
2023-05-12T12:43:07.223Z,27.63
2023-05-12T12:45:35.153Z,36.50
2023-05-12T12:48:03.114Z,28.30
2023-05-12T12:50:32.340Z,28.03
2023-05-12T12:53:01.641Z,27.27
2023-05-12T12:55:29.611Z,27.77
2023-05-12T12:57:57.912Z,28.20
2023-05-12T13:00:26.883Z,29.77
2023-05-12T13:02:54.903Z,26.53
2023-05-12T13:05:23.261Z,26.53
2023-05-12T13:07:52.276Z,25.87
2023-05-12T13:10:21.763Z,24.67
2023-05-12T13:12:49.773Z,25.47
2023-05-12T13:15:19.358Z,25.77
2023-05-12T13:17:47.790Z,25.03
2023-05-12T13:20:17.034Z,26.20
2023-05-12T13:22:46.010Z,26.83
2023-05-12T13:25:13.913Z,29.20
2023-05-12T13:27:43.333Z,27.13
2023-05-12T13:30:13.518Z,26.23
2023-05-12T13:32:42.029Z,26.00
2023-05-12T13:35:10.524Z,25.93
2023-05-12T13:37:38.524Z,26.07
2023-05-12T13:40:07.745Z,27.47
2023-05-12T13:42:35.965Z,24.97
2023-05-12T13:45:06.085Z,29.27
2023-05-12T13:47:34.065Z,31.27
2023-05-12T13:50:01.970Z,35.73
2023-05-12T13:52:30.053Z,24.53
2023-05-12T13:54:58.193Z,23.10
2023-05-12T13:57:26.335Z,26.77
2023-05-12T13:59:57.641Z,23.97
2023-05-12T14:02:27.072Z,23.13
2023-05-12T14:04:56.142Z,26.57
2023-05-12T14:07:25.320Z,26.70
2023-05-12T14:09:53.258Z,48.90
2023-05-12T14:12:21.699Z,30.90
2023-05-12T14:14:50.543Z,22.60
2023-05-12T14:17:18.845Z,24.00
2023-05-12T14:19:48.153Z,23.87
2023-05-12T14:22:25.279Z,25.33
2023-05-12T14:24:55.482Z,25.43
2023-05-12T14:27:23.796Z,23.80
2023-05-12T14:29:51.815Z,24.80
2023-05-12T14:32:20.664Z,23.87
2023-05-12T14:34:49.916Z,24.70
2023-05-12T14:37:17.896Z,23.63
2023-05-12T14:39:45.796Z,31.40
2023-05-12T14:42:13.730Z,25.60
2023-05-12T14:44:41.678Z,26.93
2023-05-12T14:47:09.631Z,23.93
2023-05-12T14:49:37.652Z,23.73
2023-05-12T14:52:08.230Z,22.23
2023-05-12T14:54:36.213Z,25.30
2023-05-12T14:57:05.161Z,23.90
2023-05-12T14:59:33.624Z,25.10
2023-05-12T15:02:01.732Z,24.13
2023-05-12T15:04:30.475Z,28.53
2023-05-12T15:06:58.414Z,26.03
2023-05-12T15:09:27.703Z,24.40
2023-05-12T15:11:55.669Z,22.80
2023-05-12T15:16:53.225Z,26.60
2023-05-12T15:19:21.568Z,26.37
2023-05-12T15:21:49.489Z,25.77
2023-05-12T15:24:17.540Z,27.93
2023-05-12T15:26:46.933Z,25.93
2023-05-12T15:29:14.934Z,24.97
2023-05-12T15:31:42.940Z,26.10
2023-05-12T15:34:11.050Z,23.37
2023-05-12T15:36:39.018Z,25.40
2023-05-12T15:39:07.460Z,24.17
2023-05-12T15:41:35.495Z,23.53
2023-05-12T15:44:06.206Z,22.47
2023-05-12T15:46:35.640Z,23.47
2023-05-12T15:49:03.912Z,23.10
2023-05-12T15:51:33.776Z,21.60
2023-05-12T15:54:02.646Z,24.00
2023-05-12T15:56:30.777Z,24.33
2023-05-12T15:58:58.871Z,24.67
2023-05-12T16:01:28.445Z,22.93
2023-05-12T16:03:57.577Z,21.57
2023-05-12T16:06:25.526Z,23.27
2023-05-12T16:08:54.432Z,22.43
2023-05-12T16:11:22.365Z,23.47
2023-05-12T16:13:52.215Z,23.40
2023-05-12T16:16:20.445Z,23.60
2023-05-12T16:18:49.889Z,25.50
2023-05-12T16:21:17.873Z,22.20
2023-05-12T16:23:45.755Z,22.30
2023-05-12T16:26:13.763Z,24.57
2023-05-12T16:28:41.672Z,22.23
2023-05-12T16:31:09.675Z,21.77
2023-05-12T16:33:37.824Z,21.77
2023-05-12T16:36:07.544Z,23.23
2023-05-12T16:38:35.517Z,22.07
2023-05-12T16:41:03.431Z,22.07
2023-05-12T16:43:31.390Z,22.83
2023-05-12T16:46:04.120Z,25.13
2023-05-12T16:48:34.688Z,21.87
2023-05-12T16:51:03.571Z,22.87
2023-05-12T16:53:32.827Z,22.47
2023-05-12T16:56:01.588Z,23.17
2023-05-12T16:58:32.036Z,24.27
2023-05-12T17:01:00.728Z,23.17
2023-05-12T17:03:29.260Z,22.60
2023-05-12T17:05:57.434Z,25.33
2023-05-12T17:08:25.678Z,23.77
2023-05-12T17:10:55.012Z,22.70
2023-05-12T17:13:23.118Z,21.87
2023-05-12T17:15:52.425Z,22.20
2023-05-12T17:18:20.488Z,23.50
2023-05-12T17:20:48.723Z,23.60
2023-05-12T17:23:16.636Z,21.03
2023-05-12T17:25:44.571Z,22.30
2023-05-12T17:28:14.260Z,22.43
2023-05-12T17:30:42.926Z,22.57
2023-05-12T17:33:10.873Z,22.83
2023-05-12T17:35:38.959Z,19.93
2023-05-12T17:38:06.931Z,25.47
2023-05-12T17:40:35.339Z,21.03
2023-05-12T17:43:03.282Z,20.93
2023-05-12T17:45:32.691Z,21.93
2023-05-12T17:48:00.740Z,23.43
2023-05-12T17:50:28.668Z,23.03
2023-05-12T17:52:56.603Z,23.53
2023-05-12T17:55:24.626Z,24.30
2023-05-12T17:57:52.712Z,25.97
2023-05-12T18:00:21.023Z,26.83
2023-05-12T18:02:50.680Z,26.87
2023-05-12T18:05:20.746Z,26.90
2023-05-12T18:07:48.935Z,30.30
2023-05-12T18:10:17.073Z,28.27
2023-05-12T18:12:44.959Z,27.63
2023-05-12T18:15:13.215Z,25.87
2023-05-12T18:17:41.437Z,26.03
2023-05-12T18:20:11.824Z,24.23
2023-05-12T18:22:40.973Z,25.93
2023-05-12T18:25:09.987Z,23.57
2023-05-12T18:27:37.972Z,22.77
2023-05-12T18:30:06.812Z,22.97
2023-05-12T18:32:34.793Z,22.97
2023-05-12T18:35:02.847Z,21.40
2023-05-12T18:37:32.278Z,22.83
2023-05-12T18:40:00.202Z,22.53
2023-05-12T18:42:28.997Z,24.03
2023-05-12T18:44:57.031Z,23.63
2023-05-12T18:47:24.989Z,24.83
2023-05-12T18:49:53.166Z,23.60
2023-05-12T18:52:21.612Z,23.87
2023-05-12T18:54:50.900Z,25.33
2023-05-12T18:57:18.932Z,23.37
2023-05-12T18:59:46.922Z,22.60
2023-05-12T19:02:14.917Z,25.27
2023-05-12T19:04:42.970Z,24.27
2023-05-12T19:07:15.141Z,23.67
2023-05-12T19:09:43.343Z,22.27
2023-05-12T19:12:12.597Z,24.23
2023-05-12T19:14:40.780Z,24.20
2023-05-12T19:17:08.783Z,24.33
2023-05-12T19:19:36.839Z,23.83
2023-05-12T19:22:05.063Z,23.63
2023-05-12T19:24:33.157Z,24.17
2023-05-12T19:27:01.237Z,25.13
2023-05-12T19:29:30.619Z,23.00
2023-05-12T19:31:58.719Z,23.70
2023-05-12T19:34:26.816Z,23.43
2023-05-12T19:36:56.186Z,23.83
2023-05-12T19:39:24.126Z,24.63
2023-05-12T19:41:52.231Z,24.33
2023-05-12T19:44:20.176Z,24.43
2023-05-12T19:46:49.591Z,24.37
2023-05-12T19:49:17.643Z,24.63
2023-05-12T19:51:45.699Z,24.73
2023-05-12T19:54:14.023Z,25.90
2023-05-12T19:56:42.358Z,24.23
2023-05-12T19:59:10.388Z,24.57
2023-05-12T20:01:38.381Z,26.50
2023-05-12T20:04:08.221Z,24.57
2023-05-12T20:06:36.215Z,25.37
2023-05-12T20:09:04.390Z,24.27
2023-05-12T20:11:32.299Z,24.33
2023-05-12T20:14:00.184Z,24.73
2023-05-12T20:16:28.455Z,25.00
2023-05-12T20:18:56.778Z,25.43
2023-05-12T20:21:26.893Z,24.43
2023-05-12T20:23:54.815Z,24.13
2023-05-12T20:26:23.265Z,25.43
2023-05-12T20:28:51.412Z,24.83
2023-05-12T20:31:20.047Z,24.17
2023-05-12T20:33:48.002Z,23.53
2023-05-12T20:36:15.952Z,23.97
2023-05-12T20:38:45.257Z,25.20
2023-05-12T20:41:13.698Z,24.03
2023-05-12T20:43:41.667Z,26.43
2023-05-12T20:46:09.894Z,25.37
2023-05-12T20:48:38.179Z,24.37
2023-05-12T20:51:12.850Z,24.90
2023-05-12T20:53:40.915Z,24.43
2023-05-12T20:56:10.691Z,25.47
2023-05-12T20:58:38.721Z,24.43
2023-05-12T21:01:06.654Z,23.50
2023-05-12T21:03:34.942Z,24.40
2023-05-12T21:06:03.348Z,25.97
2023-05-12T21:08:31.305Z,25.77
2023-05-12T21:10:59.472Z,24.83
2023-05-12T21:13:29.098Z,24.67
2023-05-12T21:15:57.145Z,24.10
2023-05-12T21:18:25.131Z,24.47
2023-05-12T21:20:53.159Z,24.40
2023-05-12T21:23:21.044Z,24.50
2023-05-12T21:25:49.374Z,24.23
2023-05-12T21:28:17.555Z,24.13
2023-05-12T21:30:46.887Z,24.83
2023-05-12T21:33:14.911Z,23.80
2023-05-12T21:35:42.880Z,25.60
2023-05-12T21:38:10.992Z,26.00
2023-05-12T21:40:39.239Z,26.23
2023-05-12T21:43:07.165Z,25.13
2023-05-12T21:45:35.089Z,24.33
2023-05-12T21:48:04.390Z,25.47
2023-05-12T21:50:32.360Z,24.03
2023-05-12T21:53:00.209Z,24.70
2023-05-12T21:55:28.254Z,25.47
2023-05-12T21:57:56.492Z,24.67
2023-05-12T22:00:24.680Z,24.23
2023-05-12T22:02:52.718Z,25.70
2023-05-12T22:05:22.329Z,24.57
2023-05-12T22:07:50.218Z,26.23
2023-05-12T22:10:19.938Z,24.00
2023-05-12T22:12:47.933Z,25.23
2023-05-12T22:15:15.855Z,25.97
2023-05-12T22:17:45.395Z,25.40
2023-05-12T22:20:14.344Z,26.90
2023-05-12T22:22:43.857Z,27.47
2023-05-12T22:25:12.045Z,30.13
2023-05-12T22:27:39.958Z,28.73
2023-05-12T22:30:10.055Z,28.90
2023-05-12T22:32:38.051Z,26.93
2023-05-12T22:35:06.742Z,26.87
2023-05-12T22:37:34.849Z,28.03
2023-05-12T22:40:04.806Z,29.60
2023-05-12T22:42:32.810Z,29.43
2023-05-12T22:45:00.929Z,29.70
2023-05-12T22:47:28.907Z,28.00
2023-05-12T22:49:57.339Z,30.30
2023-05-12T22:52:25.358Z,29.37
2023-05-12T22:54:53.717Z,30.83
2023-05-12T22:57:23.503Z,29.83
2023-05-12T22:59:51.701Z,30.60
2023-05-12T23:02:20.672Z,30.83
2023-05-12T23:04:48.613Z,29.83
2023-05-12T23:07:16.863Z,30.67
2023-05-12T23:09:44.733Z,30.67
2023-05-12T23:12:12.718Z,32.07
2023-05-12T23:14:41.983Z,31.33
2023-05-12T23:17:11.094Z,31.80
2023-05-12T23:19:40.105Z,31.17
2023-05-12T23:22:08.078Z,30.60
2023-05-12T23:24:36.455Z,31.27
2023-05-12T23:27:04.513Z,30.33
2023-05-12T23:29:34.023Z,32.03
2023-05-12T23:32:03.473Z,31.43
2023-05-12T23:34:31.452Z,31.77
2023-05-12T23:36:59.377Z,31.70
2023-05-12T23:39:27.337Z,32.30
2023-05-12T23:41:55.597Z,33.30
2023-05-12T23:44:23.480Z,31.27
2023-05-12T23:46:52.398Z,30.67
2023-05-12T23:49:21.782Z,31.90
2023-05-12T23:51:49.717Z,31.00
2023-05-12T23:54:17.621Z,30.13
2023-05-12T23:56:45.823Z,29.17
2023-05-12T23:59:13.688Z,30.20
